Thunderstorms From: 22-05-2018 15:00 Until: 23-05-2018 15:00 warning for: Thunderstorms Level: Yellow info button

Although rather usual in this region, locally or potentially dangerous phenomena are expected. (such as local winds, summer thunderstorms, rising streams or high waves) Be aware and pay attention to the latest weather updates, especially if you carry out activities exposed to weather or close to a stream or shoreline. 


Meteo18 Weather Cam more information Meteo18 Weather Cam


warning for Thunderstorms more information blitzortung!


Rain radar more information rain snow radar


Visit our other weather sites:

Template documentation
and downloads

And another site



Weather Underground History page Text

Daily Summary for December 26, 2017 Units:  Both    English   Metric
« Previous Day
Next Day »
Daily Weekly Monthly Yearly Custom
  High: Low: Average:
Temperature: TemperatureC °F /  -17.8 °C 1.2 °F /  -17.1 °C 6.1 °F /  -14.4 °C
Dew Point: DewpointC °F /  -17.8 °C 0.8 °F /  -17.3 °C 3.8 °F /  -15.7 °C
Humidity: Humidity % 79 % 85 %
Wind Speed: WindSpeedKMH mph /  0 km/h - 14 mph /  22.5 km/h
Wind Gust: WindSpeedGustKMH mph /  0 km/h - -
Wind:- - SSW
Pressure: PressurehPa in /  0 hPa 993.8 in /  33650.1 hPa -
Precipitation: 0.5 in /  12.7 mm    
Historical Graphs
 
 
Tabular Data for December 26, 2017
Time Temperature Dew Point Pressure Wind Wind Speed Wind Gust Humidity Rainfall Rate (Hourly)
TemperatureC °F /  -17.8 °C DewpointC °F /  -17.8 °C PressurehPa in /  0 hPa Calm     Humidity % HourlyPrecipMM in /  0 mm
00:02 1.2 °F /  -17.1 °C 0.8 °F /  -17.3 °C 1011.4 in /  34246 hPa South 1.6 mph /  2.6 km/h 6.4 mph /  10.3 km/h 97 % 0.0 in /  0 mm
00:12 1.6 °F /  -16.9 °C 1.2 °F /  -17.1 °C 1011.4 in /  34246 hPa SSW 1.6 mph /  2.6 km/h 6.4 mph /  10.3 km/h 97 % 0.0 in /  0 mm
00:17 1.7 °F /  -16.8 °C 1.3 °F /  -17.1 °C 1011.4 in /  34246 hPa SSE 1.6 mph /  2.6 km/h 9.7 mph /  15.6 km/h 97 % 0.0 in /  0 mm
00:22 1.7 °F /  -16.8 °C 1.3 °F /  -17.1 °C 1011.4 in /  34246 hPa SSW 1.6 mph /  2.6 km/h 9.7 mph /  15.6 km/h 97 % 0.0 in /  0 mm
00:32 1.9 °F /  -16.7 °C 1.3 °F /  -17.1 °C 1011.1 in /  34235.8 hPa South 3.2 mph /  5.1 km/h 9.7 mph /  15.6 km/h 96 % 0.0 in /  0 mm
00:42 2.1 °F /  -16.6 °C 1.4 °F /  -17 °C 1011.1 in /  34235.8 hPa South 3.2 mph /  5.1 km/h 6.4 mph /  10.3 km/h 95 % 0.0 in /  0 mm
00:47 2.2 °F /  -16.6 °C 1.5 °F /  -16.9 °C 1011.1 in /  34235.8 hPa SSW 3.2 mph /  5.1 km/h 8.0 mph /  12.9 km/h 95 % 0.0 in /  0 mm
00:52 2.2 °F /  -16.6 °C 1.3 °F /  -17.1 °C 1010.7 in /  34222.3 hPa South 4.8 mph /  7.7 km/h 8.0 mph /  12.9 km/h 94 % 0.0 in /  0 mm
00:57 2.2 °F /  -16.6 °C 1.3 °F /  -17.1 °C 1010.7 in /  34222.3 hPa SW 4.8 mph /  7.7 km/h 8.0 mph /  12.9 km/h 94 % 0.0 in /  0 mm
01:02 2.3 °F /  -16.5 °C 1.4 °F /  -17 °C 1010.4 in /  34212.1 hPa South 6.4 mph /  10.3 km/h 6.4 mph /  10.3 km/h 94 % 0.0 in /  0 mm
01:12 2.5 °F /  -16.4 °C 1.5 °F /  -16.9 °C 1010.4 in /  34212.1 hPa SW 6.4 mph /  10.3 km/h 8.0 mph /  12.9 km/h 93 % 0.0 in /  0 mm
01:17 2.6 °F /  -16.3 °C 1.4 °F /  -17 °C 1010.4 in /  34212.1 hPa SW 6.4 mph /  10.3 km/h 9.7 mph /  15.6 km/h 92 % 0.0 in /  0 mm
01:27 3.0 °F /  -16.1 °C 1.7 °F /  -16.8 °C 1010.0 in /  34198.6 hPa WSW 3.2 mph /  5.1 km/h 9.7 mph /  15.6 km/h 91 % 0.0 in /  0 mm
01:32 3.0 °F /  -16.1 °C 1.5 °F /  -16.9 °C 1010.0 in /  34198.6 hPa South 9.7 mph /  15.6 km/h 12.9 mph /  20.8 km/h 90 % 0.0 in /  0 mm
01:37 3.0 °F /  -16.1 °C 1.5 °F /  -16.9 °C 1010.0 in /  34198.6 hPa SSW 9.7 mph /  15.6 km/h 12.9 mph /  20.8 km/h 90 % 0.0 in /  0 mm
01:42 3.1 °F /  -16.1 °C 1.6 °F /  -16.9 °C 1010.0 in /  34198.6 hPa SSW 4.8 mph /  7.7 km/h 12.9 mph /  20.8 km/h 90 % 0.0 in /  0 mm
01:47 3.1 °F /  -16.1 °C 1.6 °F /  -16.9 °C 1010.0 in /  34198.6 hPa SSW 4.8 mph /  7.7 km/h 12.9 mph /  20.8 km/h 90 % 0.0 in /  0 mm
01:52 3.2 °F /  -16 °C 1.7 °F /  -16.8 °C 1009.7 in /  34188.4 hPa SW 3.2 mph /  5.1 km/h 9.7 mph /  15.6 km/h 90 % 0.0 in /  0 mm
01:57 3.2 °F /  -16 °C 1.7 °F /  -16.8 °C 1009.7 in /  34188.4 hPa SW 4.8 mph /  7.7 km/h 11.3 mph /  18.2 km/h 90 % 0.0 in /  0 mm
02:02 3.4 °F /  -15.9 °C 1.8 °F /  -16.8 °C 1009.7 in /  34188.4 hPa SSW 6.4 mph /  10.3 km/h 11.3 mph /  18.2 km/h 89 % 0.0 in /  0 mm
02:12 4.3 °F /  -15.4 °C 2.3 °F /  -16.5 °C 1009.4 in /  34178.3 hPa SSE 11.3 mph /  18.2 km/h 11.3 mph /  18.2 km/h 87 % 0.0 in /  0 mm
02:17 4.5 °F /  -15.3 °C 2.4 °F /  -16.4 °C 1009.4 in /  34178.3 hPa SW 12.9 mph /  20.8 km/h 19.3 mph /  31.1 km/h 86 % 0.0 in /  0 mm
02:22 4.6 °F /  -15.2 °C 2.3 °F /  -16.5 °C 1009.4 in /  34178.3 hPa South 6.4 mph /  10.3 km/h 19.3 mph /  31.1 km/h 85 % 0.0 in /  0 mm
02:32 4.6 °F /  -15.2 °C 2.3 °F /  -16.5 °C 1009.4 in /  34178.3 hPa South 3.2 mph /  5.1 km/h 22.5 mph /  36.2 km/h 85 % 0.0 in /  0 mm
02:37 4.5 °F /  -15.3 °C 2.2 °F /  -16.6 °C 1009.4 in /  34178.3 hPa South 3.2 mph /  5.1 km/h 17.7 mph /  28.5 km/h 85 % 0.0 in /  0 mm
02:42 4.4 °F /  -15.3 °C 2.1 °F /  -16.6 °C 1009.0 in /  34164.7 hPa SSE 4.8 mph /  7.7 km/h 17.7 mph /  28.5 km/h 85 % 0.0 in /  0 mm
02:47 4.3 °F /  -15.4 °C 2.2 °F /  -16.6 °C 1009.0 in /  34164.7 hPa SSW 4.8 mph /  7.7 km/h 14.5 mph /  23.3 km/h 86 % 0.0 in /  0 mm
02:52 4.3 °F /  -15.4 °C 2.2 °F /  -16.6 °C 1009.0 in /  34164.7 hPa South 4.8 mph /  7.7 km/h 14.5 mph /  23.3 km/h 86 % 0.0 in /  0 mm
02:57 4.3 °F /  -15.4 °C 2.2 °F /  -16.6 °C 1008.7 in /  34154.6 hPa South 3.2 mph /  5.1 km/h 14.5 mph /  23.3 km/h 86 % 0.0 in /  0 mm
03:02 4.3 °F /  -15.4 °C 2.2 °F /  -16.6 °C 1008.7 in /  34154.6 hPa SW 6.4 mph /  10.3 km/h 14.5 mph /  23.3 km/h 86 % 0.0 in /  0 mm
03:07 4.4 °F /  -15.3 °C 2.3 °F /  -16.5 °C 1008.7 in /  34154.6 hPa South 11.3 mph /  18.2 km/h 11.3 mph /  18.2 km/h 86 % 0.0 in /  0 mm
03:12 4.6 °F /  -15.2 °C 2.5 °F /  -16.4 °C 1008.4 in /  34144.4 hPa SSW 8.0 mph /  12.9 km/h 11.3 mph /  18.2 km/h 86 % 0.0 in /  0 mm
03:17 4.7 °F /  -15.2 °C 2.6 °F /  -16.3 °C 1008.4 in /  34144.4 hPa South 8.0 mph /  12.9 km/h 16.1 mph /  25.9 km/h 86 % 0.0 in /  0 mm
03:22 4.9 °F /  -15.1 °C 2.8 °F /  -16.2 °C 1008.4 in /  34144.4 hPa SSE 6.4 mph /  10.3 km/h 16.1 mph /  25.9 km/h 86 % 0.0 in /  0 mm
03:32 5.4 °F /  -14.8 °C 3.1 °F /  -16.1 °C 1008.0 in /  34130.9 hPa South 8.0 mph /  12.9 km/h 16.1 mph /  25.9 km/h 85 % 0.0 in /  0 mm
03:37 5.7 °F /  -14.6 °C 3.2 °F /  -16 °C 1007.7 in /  34120.7 hPa SSE 8.0 mph /  12.9 km/h 20.9 mph /  33.6 km/h 84 % 0.0 in /  0 mm
03:52 6.7 °F /  -14.1 °C 4.0 °F /  -15.6 °C 1007.3 in /  34107.2 hPa South 12.9 mph /  20.8 km/h 24.1 mph /  38.8 km/h 83 % 0.0 in /  0 mm
03:57 6.9 °F /  -13.9 °C 4.0 °F /  -15.6 °C 1007.3 in /  34107.2 hPa South 11.3 mph /  18.2 km/h 24.1 mph /  38.8 km/h 82 % 0.0 in /  0 mm
04:02 7.2 °F /  -13.8 °C 4.3 °F /  -15.4 °C 1007.0 in /  34097 hPa SW 11.3 mph /  18.2 km/h 27.4 mph /  44.1 km/h 82 % 0.0 in /  0 mm
04:12 7.6 °F /  -13.6 °C 4.5 °F /  -15.3 °C 1007.0 in /  34097 hPa SSW 20.9 mph /  33.6 km/h 27.4 mph /  44.1 km/h 81 % 0.0 in /  0 mm
04:18 7.6 °F /  -13.6 °C 4.5 °F /  -15.3 °C 1007.0 in /  34097 hPa SSE 11.3 mph /  18.2 km/h 32.2 mph /  51.8 km/h 81 % 0.0 in /  0 mm
04:27 7.9 °F /  -13.4 °C 4.7 °F /  -15.2 °C 1007.0 in /  34097 hPa SSW 16.1 mph /  25.9 km/h 32.2 mph /  51.8 km/h 80 % 0.0 in /  0 mm
04:32 8.0 °F /  -13.3 °C 4.8 °F /  -15.1 °C 1007.0 in /  34097 hPa South 24.1 mph /  38.8 km/h 32.2 mph /  51.8 km/h 80 % 0.0 in /  0 mm
04:37 8.2 °F /  -13.2 °C 4.8 °F /  -15.1 °C 1007.0 in /  34097 hPa SW 33.8 mph /  54.4 km/h 33.8 mph /  54.4 km/h 79 % 0.0 in /  0 mm
04:42 8.2 °F /  -13.2 °C 5.0 °F /  -15 °C 1007.0 in /  34097 hPa SW 43.4 mph /  69.8 km/h 45.1 mph /  72.6 km/h 80 % 0.0 in /  0 mm
04:47 8.2 °F /  -13.2 °C 5.1 °F /  -14.9 °C 1006.7 in /  34086.9 hPa SSW 22.5 mph /  36.2 km/h 48.3 mph /  77.7 km/h 81 % 0.0 in /  0 mm
04:52 8.3 °F /  -13.2 °C 5.1 °F /  -14.9 °C 1006.7 in /  34086.9 hPa SSW 48.3 mph /  77.7 km/h 48.3 mph /  77.7 km/h 80 % 0.0 in /  0 mm
04:57 8.5 °F /  -13.1 °C 5.2 °F /  -14.9 °C 1006.7 in /  34086.9 hPa WSW 40.2 mph /  64.7 km/h 48.3 mph /  77.7 km/h 80 % 0.0 in /  0 mm
05:02 8.5 °F /  -13.1 °C 5.2 °F /  -14.9 °C 1006.3 in /  34073.3 hPa SW 32.2 mph /  51.8 km/h 61.1 mph /  98.3 km/h 80 % 0.0 in /  0 mm
05:12 8.5 °F /  -13.1 °C 5.4 °F /  -14.8 °C 1006.3 in /  34073.3 hPa SW 32.2 mph /  51.8 km/h 53.1 mph /  85.5 km/h 81 % 0.0 in /  0 mm
05:17 8.5 °F /  -13.1 °C 5.4 °F /  -14.8 °C 1006.3 in /  34073.3 hPa SW 43.4 mph /  69.8 km/h 53.1 mph /  85.5 km/h 81 % 0.0 in /  0 mm
05:22 8.7 °F /  -12.9 °C 5.4 °F /  -14.8 °C 1006.3 in /  34073.3 hPa WSW 49.9 mph /  80.3 km/h 66.0 mph /  106.2 km/h 80 % 0.3 in /  7.62 mm
05:32 8.4 °F /  -13.1 °C 5.5 °F /  -14.7 °C 1006.3 in /  34073.3 hPa SW 41.8 mph /  67.3 km/h 66.0 mph /  106.2 km/h 82 % 0.3 in /  7.62 mm
05:42 8.1 °F /  -13.3 °C 5.4 °F /  -14.8 °C 1006.3 in /  34073.3 hPa West 24.1 mph /  38.8 km/h 62.8 mph /  101.1 km/h 83 % 0.3 in /  7.62 mm
05:52 7.7 °F /  -13.5 °C 5.0 °F /  -15 °C 1006.3 in /  34073.3 hPa WSW 35.4 mph /  57 km/h 62.8 mph /  101.1 km/h 83 % 0.3 in /  7.62 mm
05:57 7.5 °F /  -13.6 °C 5.0 °F /  -15 °C 1006.7 in /  34086.9 hPa SW 22.5 mph /  36.2 km/h 62.8 mph /  101.1 km/h 84 % 0.3 in /  7.62 mm
06:02 7.2 °F /  -13.8 °C 5.0 °F /  -15 °C 1006.7 in /  34086.9 hPa SW 59.5 mph /  95.8 km/h 62.8 mph /  101.1 km/h 86 % 0.3 in /  7.62 mm
06:07 7.1 °F /  -13.8 °C 4.9 °F /  -15.1 °C 1006.7 in /  34086.9 hPa WSW 41.8 mph /  67.3 km/h 62.8 mph /  101.1 km/h 86 % 0.3 in /  7.62 mm
06:17 6.6 °F /  -14.1 °C 4.8 °F /  -15.1 °C 1007.3 in /  34107.2 hPa SW 30.6 mph /  49.2 km/h 61.1 mph /  98.3 km/h 88 % 0.3 in /  7.62 mm
06:22 6.5 °F /  -14.2 °C 4.7 °F /  -15.2 °C 1007.3 in /  34107.2 hPa West 35.4 mph /  57 km/h 57.9 mph /  93.2 km/h 88 % 0.0 in /  0 mm
06:27 6.4 °F /  -14.2 °C 4.6 °F /  -15.2 °C 1007.3 in /  34107.2 hPa SW 35.4 mph /  57 km/h 57.9 mph /  93.2 km/h 88 % 0.0 in /  0 mm
06:32 6.5 °F /  -14.2 °C 4.5 °F /  -15.3 °C 1007.7 in /  34120.7 hPa SW 43.4 mph /  69.8 km/h 57.9 mph /  93.2 km/h 87 % 0.0 in /  0 mm
06:37 6.6 °F /  -14.1 °C 4.6 °F /  -15.2 °C 1007.7 in /  34120.7 hPa WNW 16.1 mph /  25.9 km/h 56.3 mph /  90.6 km/h 87 % 0.0 in /  0 mm
06:42 6.6 °F /  -14.1 °C 4.4 °F /  -15.3 °C 1008.0 in /  34130.9 hPa WSW 37.0 mph /  59.5 km/h 56.3 mph /  90.6 km/h 86 % 0.0 in /  0 mm
06:47 6.7 °F /  -14.1 °C 4.4 °F /  -15.3 °C 1008.4 in /  34144.4 hPa WSW 43.4 mph /  69.8 km/h 56.3 mph /  90.6 km/h 85 % 0.0 in /  0 mm
06:52 6.6 °F /  -14.1 °C 4.4 °F /  -15.3 °C 1008.7 in /  34154.6 hPa West 37.0 mph /  59.5 km/h 64.4 mph /  103.6 km/h 86 % 0.0 in /  0 mm
07:02 6.3 °F /  -14.3 °C 4.1 °F /  -15.5 °C 1009.4 in /  34178.3 hPa West 25.7 mph /  41.4 km/h 64.4 mph /  103.6 km/h 86 % 0.0 in /  0 mm
07:07 6.2 °F /  -14.3 °C 4.2 °F /  -15.4 °C 1009.4 in /  34178.3 hPa WSW 20.9 mph /  33.6 km/h 64.4 mph /  103.6 km/h 87 % 0.0 in /  0 mm
07:12 6.1 °F /  -14.4 °C 4.1 °F /  -15.5 °C 1009.4 in /  34178.3 hPa WSW 40.2 mph /  64.7 km/h 61.1 mph /  98.3 km/h 87 % 0.0 in /  0 mm
07:17 5.9 °F /  -14.5 °C 4.1 °F /  -15.5 °C 1010.0 in /  34198.6 hPa West 37.0 mph /  59.5 km/h 61.1 mph /  98.3 km/h 88 % 0.0 in /  0 mm
07:27 5.6 °F /  -14.7 °C 4.1 °F /  -15.5 °C 1010.4 in /  34212.1 hPa WNW 17.7 mph /  28.5 km/h 57.9 mph /  93.2 km/h 90 % 0.0 in /  0 mm
07:32 5.6 °F /  -14.7 °C 4.1 °F /  -15.5 °C 1010.4 in /  34212.1 hPa WSW 19.3 mph /  31.1 km/h 57.9 mph /  93.2 km/h 90 % 0.0 in /  0 mm
07:42 5.6 °F /  -14.7 °C 4.1 °F /  -15.5 °C 1011.1 in /  34235.8 hPa West 22.5 mph /  36.2 km/h 41.8 mph /  67.3 km/h 90 % 0.0 in /  0 mm
07:57 5.4 °F /  -14.8 °C 3.9 °F /  -15.6 °C 1011.4 in /  34246 hPa WSW 22.5 mph /  36.2 km/h 40.2 mph /  64.7 km/h 90 % 0.0 in /  0 mm
08:02 5.4 °F /  -14.8 °C 3.9 °F /  -15.6 °C 1011.4 in /  34246 hPa WSW 25.7 mph /  41.4 km/h 33.8 mph /  54.4 km/h 90 % 0.0 in /  0 mm
08:12 5.4 °F /  -14.8 °C 3.6 °F /  -15.8 °C 1011.7 in /  34256.2 hPa West 17.7 mph /  28.5 km/h 33.8 mph /  54.4 km/h 88 % 0.0 in /  0 mm
08:22 5.4 °F /  -14.8 °C 3.6 °F /  -15.8 °C 1011.7 in /  34256.2 hPa WSW 14.5 mph /  23.3 km/h 30.6 mph /  49.2 km/h 88 % 0.0 in /  0 mm
08:32 5.3 °F /  -14.8 °C 3.5 °F /  -15.8 °C 1012.1 in /  34269.7 hPa SW 12.9 mph /  20.8 km/h 30.6 mph /  49.2 km/h 88 % 0.0 in /  0 mm
08:42 5.2 °F /  -14.9 °C 3.4 °F /  -15.9 °C 1012.4 in /  34279.9 hPa WSW 12.9 mph /  20.8 km/h 30.6 mph /  49.2 km/h 88 % 0.0 in /  0 mm
08:47 5.2 °F /  -14.9 °C 3.4 °F /  -15.9 °C 1012.1 in /  34269.7 hPa SW 9.7 mph /  15.6 km/h 30.6 mph /  49.2 km/h 88 % 0.0 in /  0 mm
08:52 5.2 °F /  -14.9 °C 3.4 °F /  -15.9 °C 1012.4 in /  34279.9 hPa WSW 8.0 mph /  12.9 km/h 25.7 mph /  41.4 km/h 88 % 0.0 in /  0 mm
08:57 5.1 °F /  -14.9 °C 3.3 °F /  -15.9 °C 1012.4 in /  34279.9 hPa SW 11.3 mph /  18.2 km/h 25.7 mph /  41.4 km/h 88 % 0.0 in /  0 mm
09:02 5.1 °F /  -14.9 °C 3.3 °F /  -15.9 °C 1012.4 in /  34279.9 hPa SW 16.1 mph /  25.9 km/h 25.7 mph /  41.4 km/h 88 % 0.0 in /  0 mm
09:12 5.1 °F /  -14.9 °C 3.3 °F /  -15.9 °C 1012.8 in /  34293.4 hPa WNW 17.7 mph /  28.5 km/h 27.4 mph /  44.1 km/h 88 % 0.0 in /  0 mm
09:17 5.1 °F /  -14.9 °C 3.3 °F /  -15.9 °C 1012.8 in /  34293.4 hPa SW 11.3 mph /  18.2 km/h 27.4 mph /  44.1 km/h 88 % 0.0 in /  0 mm
09:27 5.1 °F /  -14.9 °C 3.3 °F /  -15.9 °C 1012.8 in /  34293.4 hPa West 9.7 mph /  15.6 km/h 27.4 mph /  44.1 km/h 88 % 0.0 in /  0 mm
09:37 5.1 °F /  -14.9 °C 3.3 °F /  -15.9 °C 1012.8 in /  34293.4 hPa SSW 9.7 mph /  15.6 km/h 27.4 mph /  44.1 km/h 88 % 0.0 in /  0 mm
09:47 5.1 °F /  -14.9 °C 3.3 °F /  -15.9 °C 1012.8 in /  34293.4 hPa SW 12.9 mph /  20.8 km/h 22.5 mph /  36.2 km/h 88 % 0.0 in /  0 mm
09:57 5.3 °F /  -14.8 °C 3.5 °F /  -15.8 °C 1013.1 in /  34303.6 hPa WSW 19.3 mph /  31.1 km/h 25.7 mph /  41.4 km/h 88 % 0.0 in /  0 mm
10:02 5.3 °F /  -14.8 °C 3.5 °F /  -15.8 °C 1012.8 in /  34293.4 hPa SW 11.3 mph /  18.2 km/h 25.7 mph /  41.4 km/h 88 % 0.0 in /  0 mm
10:12 5.5 °F /  -14.7 °C 3.7 °F /  -15.7 °C 1012.8 in /  34293.4 hPa SW 14.5 mph /  23.3 km/h 24.1 mph /  38.8 km/h 88 % 0.0 in /  0 mm
10:17 5.6 °F /  -14.7 °C 3.8 °F /  -15.7 °C 1012.8 in /  34293.4 hPa SSW 12.9 mph /  20.8 km/h 24.1 mph /  38.8 km/h 88 % 0.0 in /  0 mm
10:22 5.7 °F /  -14.6 °C 3.9 °F /  -15.6 °C 1012.8 in /  34293.4 hPa SSW 8.0 mph /  12.9 km/h 22.5 mph /  36.2 km/h 88 % 0.0 in /  0 mm
10:32 5.6 °F /  -14.7 °C 3.8 °F /  -15.7 °C 1012.8 in /  34293.4 hPa SW 14.5 mph /  23.3 km/h 22.5 mph /  36.2 km/h 88 % 0.0 in /  0 mm
10:42 5.7 °F /  -14.6 °C 3.9 °F /  -15.6 °C 1012.8 in /  34293.4 hPa WSW 16.1 mph /  25.9 km/h 22.5 mph /  36.2 km/h 88 % 0.0 in /  0 mm
10:47 5.8 °F /  -14.6 °C 4.0 °F /  -15.6 °C 1012.8 in /  34293.4 hPa SW 14.5 mph /  23.3 km/h 22.5 mph /  36.2 km/h 88 % 0.0 in /  0 mm
10:57 6.0 °F /  -14.4 °C 4.2 °F /  -15.4 °C 1012.8 in /  34293.4 hPa SW 17.7 mph /  28.5 km/h 24.1 mph /  38.8 km/h 88 % 0.0 in /  0 mm
11:02 6.2 °F /  -14.3 °C 4.2 °F /  -15.4 °C 1012.8 in /  34293.4 hPa WSW 9.7 mph /  15.6 km/h 22.5 mph /  36.2 km/h 87 % 0.0 in /  0 mm
11:12 6.5 °F /  -14.2 °C 4.3 °F /  -15.4 °C 1012.8 in /  34293.4 hPa SW 11.3 mph /  18.2 km/h 22.5 mph /  36.2 km/h 86 % 0.0 in /  0 mm
11:17 6.6 °F /  -14.1 °C 4.4 °F /  -15.3 °C 1012.8 in /  34293.4 hPa SW 9.7 mph /  15.6 km/h 22.5 mph /  36.2 km/h 86 % 0.0 in /  0 mm
11:22 6.7 °F /  -14.1 °C 4.4 °F /  -15.3 °C 1012.8 in /  34293.4 hPa SW 16.1 mph /  25.9 km/h 25.7 mph /  41.4 km/h 85 % 0.0 in /  0 mm
11:32 6.7 °F /  -14.1 °C 4.7 °F /  -15.2 °C 1012.4 in /  34279.9 hPa SSW 14.5 mph /  23.3 km/h 27.4 mph /  44.1 km/h 87 % 0.0 in /  0 mm
11:37 6.7 °F /  -14.1 °C 4.7 °F /  -15.2 °C 1012.4 in /  34279.9 hPa SSW 12.9 mph /  20.8 km/h 27.4 mph /  44.1 km/h 87 % 0.0 in /  0 mm
11:42 6.8 °F /  -14 °C 4.8 °F /  -15.1 °C 1012.4 in /  34279.9 hPa SW 22.5 mph /  36.2 km/h 25.7 mph /  41.4 km/h 87 % 0.0 in /  0 mm
11:52 6.9 °F /  -13.9 °C 4.6 °F /  -15.2 °C 1012.1 in /  34269.7 hPa WSW 19.3 mph /  31.1 km/h 25.7 mph /  41.4 km/h 85 % 0.0 in /  0 mm
12:02 7.2 °F /  -13.8 °C 4.8 °F /  -15.1 °C 1011.7 in /  34256.2 hPa WSW 14.5 mph /  23.3 km/h 32.2 mph /  51.8 km/h 85 % 0.0 in /  0 mm
12:12 7.3 °F /  -13.7 °C 4.8 °F /  -15.1 °C 1011.7 in /  34256.2 hPa SW 11.3 mph /  18.2 km/h 32.2 mph /  51.8 km/h 84 % 0.0 in /  0 mm
12:17 7.3 °F /  -13.7 °C 4.6 °F /  -15.2 °C 1011.7 in /  34256.2 hPa SW 17.7 mph /  28.5 km/h 32.2 mph /  51.8 km/h 83 % 0.0 in /  0 mm
12:22 7.4 °F /  -13.7 °C 4.7 °F /  -15.2 °C 1011.7 in /  34256.2 hPa SW 14.5 mph /  23.3 km/h 30.6 mph /  49.2 km/h 83 % 0.0 in /  0 mm
12:32 7.5 °F /  -13.6 °C 4.6 °F /  -15.2 °C 1011.4 in /  34246 hPa WSW 19.3 mph /  31.1 km/h 30.6 mph /  49.2 km/h 82 % 0.0 in /  0 mm
12:42 7.7 °F /  -13.5 °C 4.6 °F /  -15.2 °C 1011.4 in /  34246 hPa WSW 22.5 mph /  36.2 km/h 29.0 mph /  46.7 km/h 81 % 0.0 in /  0 mm
12:47 7.9 °F /  -13.4 °C 5.0 °F /  -15 °C 1011.4 in /  34246 hPa SW 17.7 mph /  28.5 km/h 29.0 mph /  46.7 km/h 82 % 0.0 in /  0 mm
12:52 7.9 °F /  -13.4 °C 5.0 °F /  -15 °C 1011.1 in /  34235.8 hPa SW 22.5 mph /  36.2 km/h 29.0 mph /  46.7 km/h 82 % 0.0 in /  0 mm
12:57 8.0 °F /  -13.3 °C 4.9 °F /  -15.1 °C 1011.1 in /  34235.8 hPa SSW 16.1 mph /  25.9 km/h 29.0 mph /  46.7 km/h 81 % 0.0 in /  0 mm
13:02 7.9 °F /  -13.4 °C 4.8 °F /  -15.1 °C 1011.1 in /  34235.8 hPa WSW 19.3 mph /  31.1 km/h 29.0 mph /  46.7 km/h 81 % 0.0 in /  0 mm
13:12 7.9 °F /  -13.4 °C 4.8 °F /  -15.1 °C 1011.1 in /  34235.8 hPa SW 20.9 mph /  33.6 km/h 30.6 mph /  49.2 km/h 81 % 0.0 in /  0 mm
13:17 7.9 °F /  -13.4 °C 4.8 °F /  -15.1 °C 1011.1 in /  34235.8 hPa SW 30.6 mph /  49.2 km/h 30.6 mph /  49.2 km/h 81 % 0.0 in /  0 mm
13:22 8.0 °F /  -13.3 °C 5.1 °F /  -14.9 °C 1011.1 in /  34235.8 hPa SW 24.1 mph /  38.8 km/h 30.6 mph /  49.2 km/h 82 % 0.0 in /  0 mm
13:32 8.0 °F /  -13.3 °C 5.1 °F /  -14.9 °C 1010.7 in /  34222.3 hPa SW 17.7 mph /  28.5 km/h 32.2 mph /  51.8 km/h 82 % 0.0 in /  0 mm
13:37 7.9 °F /  -13.4 °C 5.0 °F /  -15 °C 1010.7 in /  34222.3 hPa SSW 9.7 mph /  15.6 km/h 32.2 mph /  51.8 km/h 82 % 0.0 in /  0 mm
13:47 7.9 °F /  -13.4 °C 4.8 °F /  -15.1 °C 1010.4 in /  34212.1 hPa SW 17.7 mph /  28.5 km/h 32.2 mph /  51.8 km/h 81 % 0.0 in /  0 mm
13:52 7.9 °F /  -13.4 °C 4.8 °F /  -15.1 °C 1010.4 in /  34212.1 hPa SW 20.9 mph /  33.6 km/h 30.6 mph /  49.2 km/h 81 % 0.0 in /  0 mm
13:57 7.9 °F /  -13.4 °C 5.0 °F /  -15 °C 1010.0 in /  34198.6 hPa SW 19.3 mph /  31.1 km/h 30.6 mph /  49.2 km/h 82 % 0.0 in /  0 mm
14:07 8.1 °F /  -13.3 °C 5.0 °F /  -15 °C 1010.0 in /  34198.6 hPa SW 12.9 mph /  20.8 km/h 30.6 mph /  49.2 km/h 81 % 0.0 in /  0 mm
14:12 8.1 °F /  -13.3 °C 5.2 °F /  -14.9 °C 1009.7 in /  34188.4 hPa SW 20.9 mph /  33.6 km/h 30.6 mph /  49.2 km/h 82 % 0.0 in /  0 mm
14:17 8.1 °F /  -13.3 °C 5.2 °F /  -14.9 °C 1009.4 in /  34178.3 hPa SW 16.1 mph /  25.9 km/h 32.2 mph /  51.8 km/h 82 % 0.0 in /  0 mm
14:22 8.1 °F /  -13.3 °C 5.2 °F /  -14.9 °C 1009.4 in /  34178.3 hPa SSW 16.1 mph /  25.9 km/h 32.2 mph /  51.8 km/h 82 % 0.0 in /  0 mm
14:27 8.1 °F /  -13.3 °C 5.4 °F /  -14.8 °C 1009.4 in /  34178.3 hPa SSW 12.9 mph /  20.8 km/h 32.2 mph /  51.8 km/h 83 % 0.0 in /  0 mm
14:32 8.1 °F /  -13.3 °C 5.2 °F /  -14.9 °C 1009.0 in /  34164.7 hPa SW 29.0 mph /  46.7 km/h 29.0 mph /  46.7 km/h 82 % 0.0 in /  0 mm
14:42 8.2 °F /  -13.2 °C 5.1 °F /  -14.9 °C 1009.0 in /  34164.7 hPa SW 24.1 mph /  38.8 km/h 25.7 mph /  41.4 km/h 81 % 0.0 in /  0 mm
14:47 8.1 °F /  -13.3 °C 5.0 °F /  -15 °C 1008.7 in /  34154.6 hPa SW 22.5 mph /  36.2 km/h 38.6 mph /  62.1 km/h 81 % 0.0 in /  0 mm
14:52 8.1 °F /  -13.3 °C 5.2 °F /  -14.9 °C 1008.4 in /  34144.4 hPa SW 22.5 mph /  36.2 km/h 38.6 mph /  62.1 km/h 82 % 0.0 in /  0 mm
14:57 8.1 °F /  -13.3 °C 5.0 °F /  -15 °C 1008.4 in /  34144.4 hPa SW 29.0 mph /  46.7 km/h 38.6 mph /  62.1 km/h 81 % 0.0 in /  0 mm
15:02 8.1 °F /  -13.3 °C 5.2 °F /  -14.9 °C 1008.4 in /  34144.4 hPa SW 24.1 mph /  38.8 km/h 33.8 mph /  54.4 km/h 82 % 0.0 in /  0 mm
15:12 8.0 °F /  -13.3 °C 5.1 °F /  -14.9 °C 1008.0 in /  34130.9 hPa SW 16.1 mph /  25.9 km/h 33.8 mph /  54.4 km/h 82 % 0.0 in /  0 mm
15:17 8.0 °F /  -13.3 °C 4.9 °F /  -15.1 °C 1008.0 in /  34130.9 hPa SW 16.1 mph /  25.9 km/h 33.8 mph /  54.4 km/h 81 % 0.0 in /  0 mm
15:22 7.9 °F /  -13.4 °C 4.8 °F /  -15.1 °C 1008.0 in /  34130.9 hPa SW 20.9 mph /  33.6 km/h 33.8 mph /  54.4 km/h 81 % 0.0 in /  0 mm
15:32 7.9 °F /  -13.4 °C 5.0 °F /  -15 °C 1007.7 in /  34120.7 hPa SW 12.9 mph /  20.8 km/h 27.4 mph /  44.1 km/h 82 % 0.0 in /  0 mm
15:42 7.8 °F /  -13.4 °C 4.9 °F /  -15.1 °C 1007.3 in /  34107.2 hPa South 11.3 mph /  18.2 km/h 27.4 mph /  44.1 km/h 82 % 0.0 in /  0 mm
15:47 7.8 °F /  -13.4 °C 4.9 °F /  -15.1 °C 1007.3 in /  34107.2 hPa SSW 9.7 mph /  15.6 km/h 25.7 mph /  41.4 km/h 82 % 0.0 in /  0 mm
15:52 7.8 °F /  -13.4 °C 4.9 °F /  -15.1 °C 1007.3 in /  34107.2 hPa South 14.5 mph /  23.3 km/h 25.7 mph /  41.4 km/h 82 % 0.0 in /  0 mm
15:57 7.8 °F /  -13.4 °C 4.9 °F /  -15.1 °C 1007.3 in /  34107.2 hPa SW 14.5 mph /  23.3 km/h 25.7 mph /  41.4 km/h 82 % 0.0 in /  0 mm
16:02 7.8 °F /  -13.4 °C 4.9 °F /  -15.1 °C 1007.0 in /  34097 hPa South 9.7 mph /  15.6 km/h 20.9 mph /  33.6 km/h 82 % 0.0 in /  0 mm
16:07 7.8 °F /  -13.4 °C 4.7 °F /  -15.2 °C 1007.0 in /  34097 hPa SSW 14.5 mph /  23.3 km/h 20.9 mph /  33.6 km/h 81 % 0.0 in /  0 mm
16:12 7.9 °F /  -13.4 °C 4.8 °F /  -15.1 °C 1007.0 in /  34097 hPa SSW 12.9 mph /  20.8 km/h 20.9 mph /  33.6 km/h 81 % 0.0 in /  0 mm
16:17 7.8 °F /  -13.4 °C 4.7 °F /  -15.2 °C 1007.0 in /  34097 hPa SSW 14.5 mph /  23.3 km/h 25.7 mph /  41.4 km/h 81 % 0.0 in /  0 mm
16:22 7.8 °F /  -13.4 °C 4.7 °F /  -15.2 °C 1006.7 in /  34086.9 hPa SSW 11.3 mph /  18.2 km/h 25.7 mph /  41.4 km/h 81 % 0.0 in /  0 mm
16:27 7.8 °F /  -13.4 °C 4.7 °F /  -15.2 °C 1006.7 in /  34086.9 hPa SSW 17.7 mph /  28.5 km/h 27.4 mph /  44.1 km/h 81 % 0.0 in /  0 mm
16:32 7.8 °F /  -13.4 °C 4.7 °F /  -15.2 °C 1006.7 in /  34086.9 hPa South 11.3 mph /  18.2 km/h 27.4 mph /  44.1 km/h 81 % 0.0 in /  0 mm
16:42 7.7 °F /  -13.5 °C 4.6 °F /  -15.2 °C 1006.3 in /  34073.3 hPa SSW 12.9 mph /  20.8 km/h 29.0 mph /  46.7 km/h 81 % 0.0 in /  0 mm
16:47 7.6 °F /  -13.6 °C 4.5 °F /  -15.3 °C 1006.3 in /  34073.3 hPa SSW 14.5 mph /  23.3 km/h 29.0 mph /  46.7 km/h 81 % 0.0 in /  0 mm
16:52 7.6 °F /  -13.6 °C 4.5 °F /  -15.3 °C 1006.0 in /  34063.2 hPa SW 16.1 mph /  25.9 km/h 29.0 mph /  46.7 km/h 81 % 0.0 in /  0 mm
16:57 7.6 °F /  -13.6 °C 4.5 °F /  -15.3 °C 1006.0 in /  34063.2 hPa SSW 9.7 mph /  15.6 km/h 20.9 mph /  33.6 km/h 81 % 0.0 in /  0 mm
17:02 7.6 °F /  -13.6 °C 4.5 °F /  -15.3 °C 1006.0 in /  34063.2 hPa SW 17.7 mph /  28.5 km/h 20.9 mph /  33.6 km/h 81 % 0.0 in /  0 mm
17:12 7.4 °F /  -13.7 °C 4.4 °F /  -15.3 °C 1005.6 in /  34049.6 hPa SSW 8.0 mph /  12.9 km/h 20.9 mph /  33.6 km/h 81 % 0.0 in /  0 mm
17:17 7.3 °F /  -13.7 °C 4.3 °F /  -15.4 °C 1005.6 in /  34049.6 hPa SSW 11.3 mph /  18.2 km/h 20.9 mph /  33.6 km/h 81 % 0.0 in /  0 mm
17:22 7.3 °F /  -13.7 °C 4.3 °F /  -15.4 °C 1005.3 in /  34039.5 hPa SSW 9.7 mph /  15.6 km/h 20.9 mph /  33.6 km/h 81 % 0.0 in /  0 mm
17:27 7.3 °F /  -13.7 °C 4.4 °F /  -15.3 °C 1005.3 in /  34039.5 hPa South 11.3 mph /  18.2 km/h 20.9 mph /  33.6 km/h 82 % 0.0 in /  0 mm
17:32 7.2 °F /  -13.8 °C 4.2 °F /  -15.4 °C 1005.3 in /  34039.5 hPa SSW 6.4 mph /  10.3 km/h 20.9 mph /  33.6 km/h 81 % 0.0 in /  0 mm
17:42 7.1 °F /  -13.8 °C 4.2 °F /  -15.4 °C 1005.0 in /  34029.3 hPa South 6.4 mph /  10.3 km/h 19.3 mph /  31.1 km/h 82 % 0.0 in /  0 mm
17:47 6.9 °F /  -13.9 °C 4.0 °F /  -15.6 °C 1005.0 in /  34029.3 hPa SSW 8.0 mph /  12.9 km/h 19.3 mph /  31.1 km/h 82 % 0.0 in /  0 mm
17:52 6.9 °F /  -13.9 °C 4.0 °F /  -15.6 °C 1005.0 in /  34029.3 hPa SSE 8.0 mph /  12.9 km/h 17.7 mph /  28.5 km/h 82 % 0.0 in /  0 mm
17:57 6.7 °F /  -14.1 °C 3.8 °F /  -15.7 °C 1004.6 in /  34015.8 hPa South 6.4 mph /  10.3 km/h 17.7 mph /  28.5 km/h 82 % 0.0 in /  0 mm
18:07 6.6 °F /  -14.1 °C 3.7 °F /  -15.7 °C 1004.3 in /  34005.6 hPa South 6.4 mph /  10.3 km/h 17.7 mph /  28.5 km/h 82 % 0.0 in /  0 mm
18:12 6.5 °F /  -14.2 °C 3.8 °F /  -15.7 °C 1004.3 in /  34005.6 hPa South 8.0 mph /  12.9 km/h 17.7 mph /  28.5 km/h 83 % 0.0 in /  0 mm
18:17 6.4 °F /  -14.2 °C 3.7 °F /  -15.7 °C 1003.9 in /  33992.1 hPa SE 8.0 mph /  12.9 km/h 17.7 mph /  28.5 km/h 83 % 0.0 in /  0 mm
18:22 6.4 °F /  -14.2 °C 3.7 °F /  -15.7 °C 1003.9 in /  33992.1 hPa South 6.4 mph /  10.3 km/h 17.7 mph /  28.5 km/h 83 % 0.0 in /  0 mm
18:32 6.3 °F /  -14.3 °C 3.8 °F /  -15.7 °C 1003.6 in /  33981.9 hPa South 4.8 mph /  7.7 km/h 16.1 mph /  25.9 km/h 84 % 0.0 in /  0 mm
18:37 6.2 °F /  -14.3 °C 3.7 °F /  -15.7 °C 1003.3 in /  33971.7 hPa SE 6.4 mph /  10.3 km/h 16.1 mph /  25.9 km/h 84 % 0.0 in /  0 mm
18:42 6.1 °F /  -14.4 °C 3.6 °F /  -15.8 °C 1003.3 in /  33971.7 hPa SSE 3.2 mph /  5.1 km/h 12.9 mph /  20.8 km/h 84 % 0.0 in /  0 mm
18:47 6.0 °F /  -14.4 °C 3.5 °F /  -15.8 °C 1002.9 in /  33958.2 hPa SSE 6.4 mph /  10.3 km/h 12.9 mph /  20.8 km/h 84 % 0.0 in /  0 mm
18:57 5.9 °F /  -14.5 °C 3.4 °F /  -15.9 °C 1002.9 in /  33958.2 hPa South 6.4 mph /  10.3 km/h 12.9 mph /  20.8 km/h 84 % 0.0 in /  0 mm
19:02 5.8 °F /  -14.6 °C 3.3 °F /  -15.9 °C 1002.6 in /  33948 hPa SSE 4.8 mph /  7.7 km/h 12.9 mph /  20.8 km/h 84 % 0.0 in /  0 mm
19:07 5.8 °F /  -14.6 °C 3.3 °F /  -15.9 °C 1002.6 in /  33948 hPa South 9.7 mph /  15.6 km/h 12.9 mph /  20.8 km/h 84 % 0.0 in /  0 mm
19:17 5.8 °F /  -14.6 °C 3.3 °F /  -15.9 °C 1002.3 in /  33937.9 hPa South 6.4 mph /  10.3 km/h 16.1 mph /  25.9 km/h 84 % 0.0 in /  0 mm
19:22 5.8 °F /  -14.6 °C 3.3 °F /  -15.9 °C 1002.3 in /  33937.9 hPa South 11.3 mph /  18.2 km/h 16.1 mph /  25.9 km/h 84 % 0.0 in /  0 mm
19:27 5.8 °F /  -14.6 °C 3.3 °F /  -15.9 °C 1002.3 in /  33937.9 hPa SW 9.7 mph /  15.6 km/h 16.1 mph /  25.9 km/h 84 % 0.0 in /  0 mm
19:32 5.8 °F /  -14.6 °C 3.3 °F /  -15.9 °C 1001.9 in /  33924.3 hPa SSE 6.4 mph /  10.3 km/h 16.1 mph /  25.9 km/h 84 % 0.0 in /  0 mm
19:42 5.8 °F /  -14.6 °C 3.5 °F /  -15.8 °C 1001.6 in /  33914.2 hPa SSW 6.4 mph /  10.3 km/h 14.5 mph /  23.3 km/h 85 % 0.0 in /  0 mm
19:47 5.8 °F /  -14.6 °C 3.3 °F /  -15.9 °C 1001.6 in /  33914.2 hPa SE 3.2 mph /  5.1 km/h 14.5 mph /  23.3 km/h 84 % 0.0 in /  0 mm
19:52 5.7 °F /  -14.6 °C 3.4 °F /  -15.9 °C 1001.2 in /  33900.6 hPa SE 6.4 mph /  10.3 km/h 16.1 mph /  25.9 km/h 85 % 0.0 in /  0 mm
19:57 5.7 °F /  -14.6 °C 3.4 °F /  -15.9 °C 1001.2 in /  33900.6 hPa SE 6.4 mph /  10.3 km/h 16.1 mph /  25.9 km/h 85 % 0.0 in /  0 mm
20:02 5.6 °F /  -14.7 °C 3.3 °F /  -15.9 °C 1000.9 in /  33890.5 hPa South 3.2 mph /  5.1 km/h 14.5 mph /  23.3 km/h 85 % 0.0 in /  0 mm
20:07 5.5 °F /  -14.7 °C 3.3 °F /  -15.9 °C 1000.9 in /  33890.5 hPa SSE 3.2 mph /  5.1 km/h 14.5 mph /  23.3 km/h 86 % 0.0 in /  0 mm
20:12 5.4 °F /  -14.8 °C 3.2 °F /  -16 °C 1000.6 in /  33880.3 hPa SSE 3.2 mph /  5.1 km/h 11.3 mph /  18.2 km/h 86 % 0.0 in /  0 mm
20:17 5.3 °F /  -14.8 °C 3.1 °F /  -16.1 °C 1000.6 in /  33880.3 hPa South 4.8 mph /  7.7 km/h 11.3 mph /  18.2 km/h 86 % 0.0 in /  0 mm
20:22 5.3 °F /  -14.8 °C 3.1 °F /  -16.1 °C 1000.2 in /  33866.8 hPa SE 3.2 mph /  5.1 km/h 17.7 mph /  28.5 km/h 86 % 0.0 in /  0 mm
20:27 5.3 °F /  -14.8 °C 3.1 °F /  -16.1 °C 999.9 in /  33856.6 hPa South 4.8 mph /  7.7 km/h 17.7 mph /  28.5 km/h 86 % 0.0 in /  0 mm
20:32 5.3 °F /  -14.8 °C 3.1 °F /  -16.1 °C 999.5 in /  33843.1 hPa SE 4.8 mph /  7.7 km/h 17.7 mph /  28.5 km/h 86 % 0.0 in /  0 mm
20:37 5.3 °F /  -14.8 °C 3.1 °F /  -16.1 °C 999.5 in /  33843.1 hPa SSE 9.7 mph /  15.6 km/h 17.7 mph /  28.5 km/h 86 % 0.0 in /  0 mm
20:42 5.3 °F /  -14.8 °C 3.1 °F /  -16.1 °C 999.2 in /  33832.9 hPa SE 6.4 mph /  10.3 km/h 17.7 mph /  28.5 km/h 86 % 0.0 in /  0 mm
20:47 5.3 °F /  -14.8 °C 3.1 °F /  -16.1 °C 999.2 in /  33832.9 hPa SSE 4.8 mph /  7.7 km/h 17.7 mph /  28.5 km/h 86 % 0.0 in /  0 mm
20:52 5.3 °F /  -14.8 °C 3.1 °F /  -16.1 °C 998.9 in /  33822.8 hPa SSE 3.2 mph /  5.1 km/h 17.7 mph /  28.5 km/h 86 % 0.0 in /  0 mm
20:57 5.4 °F /  -14.8 °C 3.2 °F /  -16 °C 998.5 in /  33809.2 hPa SE 3.2 mph /  5.1 km/h 17.7 mph /  28.5 km/h 86 % 0.0 in /  0 mm
21:07 5.4 °F /  -14.8 °C 3.2 °F /  -16 °C 998.5 in /  33809.2 hPa SE 11.3 mph /  18.2 km/h 17.7 mph /  28.5 km/h 86 % 0.0 in /  0 mm
21:12 5.4 °F /  -14.8 °C 3.2 °F /  -16 °C 998.5 in /  33809.2 hPa SSE 6.4 mph /  10.3 km/h 17.7 mph /  28.5 km/h 86 % 0.0 in /  0 mm
21:17 5.4 °F /  -14.8 °C 3.2 °F /  -16 °C 998.2 in /  33799.1 hPa SE 6.4 mph /  10.3 km/h 17.7 mph /  28.5 km/h 86 % 0.0 in /  0 mm
21:22 5.3 °F /  -14.8 °C 3.1 °F /  -16.1 °C 998.2 in /  33799.1 hPa SSE 8.0 mph /  12.9 km/h 17.7 mph /  28.5 km/h 86 % 0.0 in /  0 mm
21:27 5.3 °F /  -14.8 °C 3.1 °F /  -16.1 °C 998.2 in /  33799.1 hPa South 6.4 mph /  10.3 km/h 17.7 mph /  28.5 km/h 86 % 0.0 in /  0 mm
21:37 5.5 °F /  -14.7 °C 3.3 °F /  -15.9 °C 997.9 in /  33788.9 hPa South 4.8 mph /  7.7 km/h 17.7 mph /  28.5 km/h 86 % 0.0 in /  0 mm
21:42 5.6 °F /  -14.7 °C 3.4 °F /  -15.9 °C 997.9 in /  33788.9 hPa South 4.8 mph /  7.7 km/h 20.9 mph /  33.6 km/h 86 % 0.0 in /  0 mm
21:47 5.7 °F /  -14.6 °C 3.4 °F /  -15.9 °C 997.5 in /  33775.4 hPa SSW 12.9 mph /  20.8 km/h 20.9 mph /  33.6 km/h 85 % 0.0 in /  0 mm
21:52 5.7 °F /  -14.6 °C 3.4 °F /  -15.9 °C 997.2 in /  33765.2 hPa SSE 4.8 mph /  7.7 km/h 20.9 mph /  33.6 km/h 85 % 0.0 in /  0 mm
21:57 5.8 °F /  -14.6 °C 3.5 °F /  -15.8 °C 997.2 in /  33765.2 hPa South 6.4 mph /  10.3 km/h 20.9 mph /  33.6 km/h 85 % 0.0 in /  0 mm
22:02 5.8 °F /  -14.6 °C 3.5 °F /  -15.8 °C 996.8 in /  33751.6 hPa SE 9.7 mph /  15.6 km/h 19.3 mph /  31.1 km/h 85 % 0.0 in /  0 mm
22:12 6.1 °F /  -14.4 °C 3.4 °F /  -15.9 °C 996.5 in /  33741.5 hPa SSW 9.7 mph /  15.6 km/h 20.9 mph /  33.6 km/h 83 % 0.0 in /  0 mm
22:17 6.2 °F /  -14.3 °C 3.5 °F /  -15.8 °C 996.5 in /  33741.5 hPa South 12.9 mph /  20.8 km/h 20.9 mph /  33.6 km/h 83 % 0.0 in /  0 mm
22:22 6.2 °F /  -14.3 °C 3.5 °F /  -15.8 °C 996.5 in /  33741.5 hPa SE 6.4 mph /  10.3 km/h 22.5 mph /  36.2 km/h 83 % 0.0 in /  0 mm
22:27 6.2 °F /  -14.3 °C 3.5 °F /  -15.8 °C 996.2 in /  33731.3 hPa SW 11.3 mph /  18.2 km/h 22.5 mph /  36.2 km/h 83 % 0.0 in /  0 mm
22:32 6.1 °F /  -14.4 °C 3.4 °F /  -15.9 °C 996.2 in /  33731.3 hPa SSE 4.8 mph /  7.7 km/h 22.5 mph /  36.2 km/h 83 % 0.0 in /  0 mm
22:42 6.1 °F /  -14.4 °C 3.4 °F /  -15.9 °C 995.8 in /  33717.8 hPa SSE 4.8 mph /  7.7 km/h 17.7 mph /  28.5 km/h 83 % 0.0 in /  0 mm
22:47 6.1 °F /  -14.4 °C 3.4 °F /  -15.9 °C 995.5 in /  33707.6 hPa SE 8.0 mph /  12.9 km/h 17.7 mph /  28.5 km/h 83 % 0.0 in /  0 mm
22:52 6.0 °F /  -14.4 °C 3.3 °F /  -15.9 °C 995.5 in /  33707.6 hPa SSE 6.4 mph /  10.3 km/h 14.5 mph /  23.3 km/h 83 % 0.0 in /  0 mm
23:02 6.0 °F /  -14.4 °C 3.3 °F /  -15.9 °C 995.1 in /  33694.1 hPa SSE 14.5 mph /  23.3 km/h 19.3 mph /  31.1 km/h 83 % 0.0 in /  0 mm
23:07 6.0 °F /  -14.4 °C 3.3 °F /  -15.9 °C 995.1 in /  33694.1 hPa SE 6.4 mph /  10.3 km/h 19.3 mph /  31.1 km/h 83 % 0.0 in /  0 mm
23:17 5.8 °F /  -14.6 °C 3.3 °F /  -15.9 °C 994.8 in /  33683.9 hPa South 8.0 mph /  12.9 km/h 20.9 mph /  33.6 km/h 84 % 0.0 in /  0 mm
23:22 5.8 °F /  -14.6 °C 3.3 °F /  -15.9 °C 994.5 in /  33673.8 hPa South 9.7 mph /  15.6 km/h 19.3 mph /  31.1 km/h 84 % 0.0 in /  0 mm
23:27 5.8 °F /  -14.6 °C 3.3 °F /  -15.9 °C 994.5 in /  33673.8 hPa SSE 6.4 mph /  10.3 km/h 19.3 mph /  31.1 km/h 84 % 0.0 in /  0 mm
23:32 5.9 °F /  -14.5 °C 3.4 °F /  -15.9 °C 994.5 in /  33673.8 hPa SSE 6.4 mph /  10.3 km/h 20.9 mph /  33.6 km/h 84 % 0.0 in /  0 mm
23:37 5.9 °F /  -14.5 °C 3.2 °F /  -16 °C 994.1 in /  33660.2 hPa SSW 12.9 mph /  20.8 km/h 20.9 mph /  33.6 km/h 83 % 0.0 in /  0 mm
23:42 6.0 °F /  -14.4 °C 3.3 °F /  -15.9 °C 994.1 in /  33660.2 hPa SW 14.5 mph /  23.3 km/h 20.9 mph /  33.6 km/h 83 % 0.0 in /  0 mm
23:47 6.0 °F /  -14.4 °C 3.3 °F /  -15.9 °C 994.1 in /  33660.2 hPa SSW 8.0 mph /  12.9 km/h 20.9 mph /  33.6 km/h 83 % 0.0 in /  0 mm
23:52 6.0 °F /  -14.4 °C 3.3 °F /  -15.9 °C 993.8 in /  33650.1 hPa South 9.7 mph /  15.6 km/h 19.3 mph /  31.1 km/h 83 % 0.3 in /  7.62 mm
23:57 6.0 °F /  -14.4 °C 3.3 °F /  -15.9 °C 993.8 in /  33650.1 hPa South 9.7 mph /  15.6 km/h 19.3 mph /  31.1 km/h 83 % 0.3 in /  7.62 mm
Meteo18
Compliments of Weather Underground - 4 mb

Script developed by  Jim McMurry - jmcmurry@mwt.net Adapted for the template by  Wim van der Kuil - Leuven-Template.eu

You find our weather info also at:

European Weather Network

Weather Underground

Equipment we use:

Weather-station
Davis Vue

Weather-program
Meteobridge

Weather-server
Raspberry PI 2 B+

Provider
1 and 1

Davis Vue

Meteobridge

Raspberry PI 2 B+

1 and 1